sensor_id;sensor_type;location;lat;lon;timestamp;temperature;humidity
24444;DHT22;13346;50.984;5.822;2022-12-07T00:02:18;4.80;99.90
24444;DHT22;13346;50.984;5.822;2022-12-07T00:04:45;4.80;99.90
24444;DHT22;13346;50.984;5.822;2022-12-07T00:07:12;4.80;99.90
24444;DHT22;13346;50.984;5.822;2022-12-07T00:09:40;4.90;99.90
24444;DHT22;13346;50.984;5.822;2022-12-07T00:12:09;4.80;99.90
24444;DHT22;13346;50.984;5.822;2022-12-07T00:14:36;4.80;99.90
24444;DHT22;13346;50.984;5.822;2022-12-07T00:17:03;4.80;99.90
24444;DHT22;13346;50.984;5.822;2022-12-07T00:19:30;4.80;99.90
24444;DHT22;13346;50.984;5.822;2022-12-07T00:21:57;4.80;99.90
24444;DHT22;13346;50.984;5.822;2022-12-07T00:24:24;4.80;99.90
24444;DHT22;13346;50.984;5.822;2022-12-07T00:26:52;4.70;99.90
24444;DHT22;13346;50.984;5.822;2022-12-07T00:29:21;4.60;99.90
24444;DHT22;13346;50.984;5.822;2022-12-07T00:31:49;4.70;99.90
24444;DHT22;13346;50.984;5.822;2022-12-07T00:34:17;4.60;99.90
24444;DHT22;13346;50.984;5.822;2022-12-07T00:36:45;4.50;99.90
24444;DHT22;13346;50.984;5.822;2022-12-07T00:39:12;4.50;99.90
24444;DHT22;13346;50.984;5.822;2022-12-07T00:41:40;4.40;99.90
24444;DHT22;13346;50.984;5.822;2022-12-07T00:44:07;4.50;99.90
24444;DHT22;13346;50.984;5.822;2022-12-07T00:46:36;4.50;99.90
24444;DHT22;13346;50.984;5.822;2022-12-07T00:49:03;4.60;99.90
24444;DHT22;13346;50.984;5.822;2022-12-07T00:51:30;4.70;99.90
24444;DHT22;13346;50.984;5.822;2022-12-07T00:53:57;4.70;99.90
24444;DHT22;13346;50.984;5.822;2022-12-07T00:56:26;4.80;99.90
24444;DHT22;13346;50.984;5.822;2022-12-07T00:58:54;4.80;99.90
24444;DHT22;13346;50.984;5.822;2022-12-07T01:01:22;4.80;99.90
24444;DHT22;13346;50.984;5.822;2022-12-07T01:03:51;4.80;99.90
24444;DHT22;13346;50.984;5.822;2022-12-07T01:06:20;4.80;99.90
24444;DHT22;13346;50.984;5.822;2022-12-07T01:08:48;4.80;99.90
24444;DHT22;13346;50.984;5.822;2022-12-07T01:11:17;4.80;99.90
24444;DHT22;13346;50.984;5.822;2022-12-07T01:13:45;4.80;99.90
24444;DHT22;13346;50.984;5.822;2022-12-07T01:16:14;4.80;99.90
24444;DHT22;13346;50.984;5.822;2022-12-07T01:18:42;4.80;99.90
24444;DHT22;13346;50.984;5.822;2022-12-07T01:21:12;4.70;99.90
24444;DHT22;13346;50.984;5.822;2022-12-07T01:23:39;4.80;99.90
24444;DHT22;13346;50.984;5.822;2022-12-07T01:26:10;4.70;99.90
24444;DHT22;13346;50.984;5.822;2022-12-07T01:28:38;4.70;99.90
24444;DHT22;13346;50.984;5.822;2022-12-07T01:31:07;4.70;99.90
24444;DHT22;13346;50.984;5.822;2022-12-07T01:33:36;4.70;99.90
24444;DHT22;13346;50.984;5.822;2022-12-07T01:36:06;4.70;99.90
24444;DHT22;13346;50.984;5.822;2022-12-07T01:38:35;4.70;99.90
24444;DHT22;13346;50.984;5.822;2022-12-07T01:41:02;4.70;99.90
24444;DHT22;13346;50.984;5.822;2022-12-07T01:43:32;4.70;99.90
24444;DHT22;13346;50.984;5.822;2022-12-07T01:46:00;4.80;99.90
24444;DHT22;13346;50.984;5.822;2022-12-07T01:48:30;4.80;99.90
24444;DHT22;13346;50.984;5.822;2022-12-07T01:51:02;4.70;99.90
24444;DHT22;13346;50.984;5.822;2022-12-07T01:53:33;4.80;99.90
24444;DHT22;13346;50.984;5.822;2022-12-07T01:56:03;4.80;99.90
24444;DHT22;13346;50.984;5.822;2022-12-07T01:58:32;4.80;99.90
24444;DHT22;13346;50.984;5.822;2022-12-07T02:00:59;4.80;99.90
24444;DHT22;13346;50.984;5.822;2022-12-07T02:03:31;4.70;99.90
24444;DHT22;13346;50.984;5.822;2022-12-07T02:06:00;4.70;99.90
24444;DHT22;13346;50.984;5.822;2022-12-07T02:08:27;4.70;99.90
24444;DHT22;13346;50.984;5.822;2022-12-07T02:10:56;4.80;99.90
24444;DHT22;13346;50.984;5.822;2022-12-07T02:13:25;4.80;99.90
24444;DHT22;13346;50.984;5.822;2022-12-07T02:16:07;4.70;99.90
24444;DHT22;13346;50.984;5.822;2022-12-07T02:18:45;4.70;99.90
24444;DHT22;13346;50.984;5.822;2022-12-07T02:21:18;4.80;99.90
24444;DHT22;13346;50.984;5.822;2022-12-07T02:24:12;4.70;99.90
24444;DHT22;13346;50.984;5.822;2022-12-07T02:29:39;4.80;99.90
24444;DHT22;13346;50.984;5.822;2022-12-07T02:32:12;4.70;99.90
24444;DHT22;13346;50.984;5.822;2022-12-07T02:34:47;4.70;99.90
24444;DHT22;13346;50.984;5.822;2022-12-07T02:37:28;4.80;99.90
24444;DHT22;13346;50.984;5.822;2022-12-07T02:40:00;4.70;99.90
24444;DHT22;13346;50.984;5.822;2022-12-07T02:42:31;4.80;99.90
24444;DHT22;13346;50.984;5.822;2022-12-07T02:45:03;4.70;99.90
24444;DHT22;13346;50.984;5.822;2022-12-07T02:47:32;4.70;99.90
24444;DHT22;13346;50.984;5.822;2022-12-07T02:50:04;4.70;99.90
24444;DHT22;13346;50.984;5.822;2022-12-07T02:52:31;4.60;99.90
24444;DHT22;13346;50.984;5.822;2022-12-07T02:54:59;4.60;99.90
24444;DHT22;13346;50.984;5.822;2022-12-07T02:57:40;4.70;99.90
24444;DHT22;13346;50.984;5.822;2022-12-07T03:00:12;4.70;99.90
24444;DHT22;13346;50.984;5.822;2022-12-07T03:02:49;4.70;99.90
24444;DHT22;13346;50.984;5.822;2022-12-07T03:08:23;4.80;99.90
24444;DHT22;13346;50.984;5.822;2022-12-07T03:10:56;4.80;99.90
24444;DHT22;13346;50.984;5.822;2022-12-07T03:13:29;4.80;99.90
24444;DHT22;13346;50.984;5.822;2022-12-07T03:16:04;4.80;99.90
24444;DHT22;13346;50.984;5.822;2022-12-07T03:18:35;4.80;99.90
24444;DHT22;13346;50.984;5.822;2022-12-07T03:21:08;4.80;99.90
24444;DHT22;13346;50.984;5.822;2022-12-07T03:23:39;4.80;99.90
24444;DHT22;13346;50.984;5.822;2022-12-07T03:26:10;4.70;99.90
24444;DHT22;13346;50.984;5.822;2022-12-07T03:28:42;4.80;99.90
24444;DHT22;13346;50.984;5.822;2022-12-07T03:31:14;4.80;99.90
24444;DHT22;13346;50.984;5.822;2022-12-07T03:33:49;4.80;99.90
24444;DHT22;13346;50.984;5.822;2022-12-07T03:36:23;4.70;99.90
24444;DHT22;13346;50.984;5.822;2022-12-07T03:38:55;4.70;99.90
24444;DHT22;13346;50.984;5.822;2022-12-07T03:41:27;4.70;99.90
24444;DHT22;13346;50.984;5.822;2022-12-07T03:43:55;4.60;99.90
24444;DHT22;13346;50.984;5.822;2022-12-07T03:46:32;4.60;99.90
24444;DHT22;13346;50.984;5.822;2022-12-07T03:49:08;4.60;99.90
24444;DHT22;13346;50.984;5.822;2022-12-07T03:51:43;4.60;99.90
24444;DHT22;13346;50.984;5.822;2022-12-07T03:54:15;4.60;99.90
24444;DHT22;13346;50.984;5.822;2022-12-07T03:56:46;4.60;99.90
24444;DHT22;13346;50.984;5.822;2022-12-07T03:59:15;4.70;99.90
24444;DHT22;13346;50.984;5.822;2022-12-07T04:01:45;4.70;99.90
24444;DHT22;13346;50.984;5.822;2022-12-07T04:04:18;4.70;99.90
24444;DHT22;13346;50.984;5.822;2022-12-07T04:06:45;4.70;99.90
24444;DHT22;13346;50.984;5.822;2022-12-07T04:09:12;4.70;99.90
24444;DHT22;13346;50.984;5.822;2022-12-07T04:11:40;4.70;99.90
24444;DHT22;13346;50.984;5.822;2022-12-07T04:14:07;4.70;99.90
24444;DHT22;13346;50.984;5.822;2022-12-07T04:16:48;4.70;99.90
24444;DHT22;13346;50.984;5.822;2022-12-07T04:19:17;4.60;99.90
24444;DHT22;13346;50.984;5.822;2022-12-07T04:21:44;4.50;99.90
24444;DHT22;13346;50.984;5.822;2022-12-07T04:24:13;4.50;99.90
24444;DHT22;13346;50.984;5.822;2022-12-07T04:26:40;4.40;99.90
24444;DHT22;13346;50.984;5.822;2022-12-07T04:29:08;4.40;99.90
24444;DHT22;13346;50.984;5.822;2022-12-07T04:31:36;4.50;99.90
24444;DHT22;13346;50.984;5.822;2022-12-07T04:34:05;4.50;99.90
24444;DHT22;13346;50.984;5.822;2022-12-07T04:36:33;4.60;99.90
24444;DHT22;13346;50.984;5.822;2022-12-07T04:39:00;4.60;99.90
24444;DHT22;13346;50.984;5.822;2022-12-07T04:41:28;4.60;99.90
24444;DHT22;13346;50.984;5.822;2022-12-07T04:43:55;4.60;99.90
24444;DHT22;13346;50.984;5.822;2022-12-07T04:46:23;4.60;99.90
24444;DHT22;13346;50.984;5.822;2022-12-07T04:48:51;4.60;99.90
24444;DHT22;13346;50.984;5.822;2022-12-07T04:51:22;4.60;99.90
24444;DHT22;13346;50.984;5.822;2022-12-07T04:53:49;4.60;99.90
24444;DHT22;13346;50.984;5.822;2022-12-07T04:56:17;4.50;99.90
24444;DHT22;13346;50.984;5.822;2022-12-07T04:58:45;4.50;99.90
24444;DHT22;13346;50.984;5.822;2022-12-07T05:01:13;4.50;99.90
24444;DHT22;13346;50.984;5.822;2022-12-07T05:03:40;4.40;99.90
24444;DHT22;13346;50.984;5.822;2022-12-07T05:06:09;4.30;99.90
24444;DHT22;13346;50.984;5.822;2022-12-07T05:08:38;4.20;99.90
24444;DHT22;13346;50.984;5.822;2022-12-07T05:11:06;4.20;99.90
24444;DHT22;13346;50.984;5.822;2022-12-07T05:13:34;4.30;99.90
24444;DHT22;13346;50.984;5.822;2022-12-07T05:16:01;4.40;99.90
24444;DHT22;13346;50.984;5.822;2022-12-07T05:18:29;4.40;99.90
24444;DHT22;13346;50.984;5.822;2022-12-07T05:20:56;4.50;99.90
24444;DHT22;13346;50.984;5.822;2022-12-07T05:23:23;4.50;99.90
24444;DHT22;13346;50.984;5.822;2022-12-07T05:25:51;4.60;99.90
24444;DHT22;13346;50.984;5.822;2022-12-07T05:28:19;4.60;99.90
24444;DHT22;13346;50.984;5.822;2022-12-07T05:30:46;4.60;99.90
24444;DHT22;13346;50.984;5.822;2022-12-07T05:33:13;4.60;99.90
24444;DHT22;13346;50.984;5.822;2022-12-07T05:35:40;4.60;99.90
24444;DHT22;13346;50.984;5.822;2022-12-07T05:38:07;4.60;99.90
24444;DHT22;13346;50.984;5.822;2022-12-07T05:40:34;4.60;99.90
24444;DHT22;13346;50.984;5.822;2022-12-07T05:43:04;4.60;99.90
24444;DHT22;13346;50.984;5.822;2022-12-07T05:45:31;4.60;99.90
24444;DHT22;13346;50.984;5.822;2022-12-07T05:47:58;4.60;99.90
24444;DHT22;13346;50.984;5.822;2022-12-07T05:50:26;4.60;99.90
24444;DHT22;13346;50.984;5.822;2022-12-07T05:52:53;4.50;99.90
24444;DHT22;13346;50.984;5.822;2022-12-07T05:55:21;4.60;99.90
24444;DHT22;13346;50.984;5.822;2022-12-07T05:57:48;4.60;99.90
24444;DHT22;13346;50.984;5.822;2022-12-07T06:00:30;4.70;99.90
24444;DHT22;13346;50.984;5.822;2022-12-07T06:02:57;4.60;99.90
24444;DHT22;13346;50.984;5.822;2022-12-07T06:05:24;4.60;99.90
24444;DHT22;13346;50.984;5.822;2022-12-07T06:07:51;4.60;99.90
24444;DHT22;13346;50.984;5.822;2022-12-07T06:10:19;4.60;99.90
24444;DHT22;13346;50.984;5.822;2022-12-07T06:12:46;4.70;99.90
24444;DHT22;13346;50.984;5.822;2022-12-07T06:15:12;4.60;99.90
24444;DHT22;13346;50.984;5.822;2022-12-07T06:17:41;4.60;99.90
24444;DHT22;13346;50.984;5.822;2022-12-07T06:20:08;4.60;99.90
24444;DHT22;13346;50.984;5.822;2022-12-07T06:22:35;4.60;99.90
24444;DHT22;13346;50.984;5.822;2022-12-07T06:25:03;4.60;99.90
24444;DHT22;13346;50.984;5.822;2022-12-07T06:27:30;4.50;99.90
24444;DHT22;13346;50.984;5.822;2022-12-07T06:29:58;4.50;99.90
24444;DHT22;13346;50.984;5.822;2022-12-07T06:32:25;4.60;99.90
24444;DHT22;13346;50.984;5.822;2022-12-07T06:34:54;4.60;99.90
24444;DHT22;13346;50.984;5.822;2022-12-07T06:37:21;4.60;99.90
24444;DHT22;13346;50.984;5.822;2022-12-07T06:39:48;4.60;99.90
24444;DHT22;13346;50.984;5.822;2022-12-07T06:42:15;4.60;99.90
24444;DHT22;13346;50.984;5.822;2022-12-07T06:44:42;4.60;99.90
24444;DHT22;13346;50.984;5.822;2022-12-07T06:47:10;4.60;99.90
24444;DHT22;13346;50.984;5.822;2022-12-07T06:49:37;4.60;99.90
24444;DHT22;13346;50.984;5.822;2022-12-07T06:52:05;4.50;99.90
24444;DHT22;13346;50.984;5.822;2022-12-07T06:54:33;4.60;99.90
24444;DHT22;13346;50.984;5.822;2022-12-07T06:57:00;4.60;99.90
24444;DHT22;13346;50.984;5.822;2022-12-07T06:59:27;4.60;99.90
24444;DHT22;13346;50.984;5.822;2022-12-07T07:01:54;4.50;99.90
24444;DHT22;13346;50.984;5.822;2022-12-07T07:04:21;4.50;99.90
24444;DHT22;13346;50.984;5.822;2022-12-07T07:06:49;4.50;99.90
24444;DHT22;13346;50.984;5.822;2022-12-07T07:09:18;4.50;99.90
24444;DHT22;13346;50.984;5.822;2022-12-07T07:11:45;4.50;99.90
24444;DHT22;13346;50.984;5.822;2022-12-07T07:14:12;4.40;99.90
24444;DHT22;13346;50.984;5.822;2022-12-07T07:16:44;4.40;99.90
24444;DHT22;13346;50.984;5.822;2022-12-07T07:19:11;4.30;99.90
24444;DHT22;13346;50.984;5.822;2022-12-07T07:21:38;4.30;99.90
24444;DHT22;13346;50.984;5.822;2022-12-07T07:24:06;4.30;99.90
24444;DHT22;13346;50.984;5.822;2022-12-07T07:26:35;4.30;99.90
24444;DHT22;13346;50.984;5.822;2022-12-07T07:29:02;4.30;99.90
24444;DHT22;13346;50.984;5.822;2022-12-07T07:31:29;4.30;99.90
24444;DHT22;13346;50.984;5.822;2022-12-07T07:33:57;4.30;99.90
24444;DHT22;13346;50.984;5.822;2022-12-07T07:36:24;4.30;99.90
24444;DHT22;13346;50.984;5.822;2022-12-07T07:38:51;4.40;99.90
24444;DHT22;13346;50.984;5.822;2022-12-07T07:41:18;4.30;99.90
24444;DHT22;13346;50.984;5.822;2022-12-07T07:43:47;4.10;99.90
24444;DHT22;13346;50.984;5.822;2022-12-07T07:46:14;4.00;99.90
24444;DHT22;13346;50.984;5.822;2022-12-07T07:48:41;3.90;99.90
24444;DHT22;13346;50.984;5.822;2022-12-07T07:51:08;3.80;99.90
24444;DHT22;13346;50.984;5.822;2022-12-07T07:53:35;3.70;99.90
24444;DHT22;13346;50.984;5.822;2022-12-07T07:56:03;3.70;99.90
24444;DHT22;13346;50.984;5.822;2022-12-07T07:58:30;3.60;99.90
24444;DHT22;13346;50.984;5.822;2022-12-07T08:01:03;3.60;99.90
24444;DHT22;13346;50.984;5.822;2022-12-07T08:03:30;3.60;99.90
24444;DHT22;13346;50.984;5.822;2022-12-07T08:05:58;3.70;99.90
24444;DHT22;13346;50.984;5.822;2022-12-07T08:08:25;3.70;99.90
24444;DHT22;13346;50.984;5.822;2022-12-07T08:10:52;3.80;99.90
24444;DHT22;13346;50.984;5.822;2022-12-07T08:13:19;3.80;99.90
24444;DHT22;13346;50.984;5.822;2022-12-07T08:15:47;3.80;99.90
24444;DHT22;13346;50.984;5.822;2022-12-07T08:18:16;3.80;99.90
24444;DHT22;13346;50.984;5.822;2022-12-07T08:20:43;3.80;99.90
24444;DHT22;13346;50.984;5.822;2022-12-07T08:23:11;3.70;99.90
24444;DHT22;13346;50.984;5.822;2022-12-07T08:25:39;3.80;99.90
24444;DHT22;13346;50.984;5.822;2022-12-07T08:28:06;3.80;99.90
24444;DHT22;13346;50.984;5.822;2022-12-07T08:30:33;3.70;99.90
24444;DHT22;13346;50.984;5.822;2022-12-07T08:33:01;3.80;99.90
24444;DHT22;13346;50.984;5.822;2022-12-07T08:35:29;3.90;99.90
24444;DHT22;13346;50.984;5.822;2022-12-07T08:37:56;3.90;99.90
24444;DHT22;13346;50.984;5.822;2022-12-07T08:40:24;4.00;99.90
24444;DHT22;13346;50.984;5.822;2022-12-07T08:42:51;4.10;99.90
24444;DHT22;13346;50.984;5.822;2022-12-07T08:45:19;4.20;99.90
24444;DHT22;13346;50.984;5.822;2022-12-07T08:47:51;4.20;99.90
24444;DHT22;13346;50.984;5.822;2022-12-07T08:50:20;4.20;99.90
24444;DHT22;13346;50.984;5.822;2022-12-07T08:52:51;4.20;99.90
24444;DHT22;13346;50.984;5.822;2022-12-07T08:55:19;4.30;99.90
24444;DHT22;13346;50.984;5.822;2022-12-07T08:57:47;4.20;99.90
24444;DHT22;13346;50.984;5.822;2022-12-07T09:00:16;4.20;99.90
24444;DHT22;13346;50.984;5.822;2022-12-07T09:02:43;4.30;99.90
24444;DHT22;13346;50.984;5.822;2022-12-07T09:05:11;4.30;99.90
24444;DHT22;13346;50.984;5.822;2022-12-07T09:07:41;4.30;99.90
24444;DHT22;13346;50.984;5.822;2022-12-07T09:10:11;4.30;99.90
24444;DHT22;13346;50.984;5.822;2022-12-07T09:12:38;4.40;99.90
24444;DHT22;13346;50.984;5.822;2022-12-07T09:15:06;4.40;99.90
24444;DHT22;13346;50.984;5.822;2022-12-07T09:17:34;4.40;99.90
24444;DHT22;13346;50.984;5.822;2022-12-07T09:20:02;4.40;99.90
24444;DHT22;13346;50.984;5.822;2022-12-07T09:22:29;4.60;99.90
24444;DHT22;13346;50.984;5.822;2022-12-07T09:24:57;4.60;99.90
24444;DHT22;13346;50.984;5.822;2022-12-07T09:27:26;4.60;99.90
24444;DHT22;13346;50.984;5.822;2022-12-07T09:29:53;4.60;99.90
24444;DHT22;13346;50.984;5.822;2022-12-07T09:32:21;4.60;99.90
24444;DHT22;13346;50.984;5.822;2022-12-07T09:34:48;4.80;99.90
24444;DHT22;13346;50.984;5.822;2022-12-07T09:37:15;4.90;99.90
24444;DHT22;13346;50.984;5.822;2022-12-07T09:39:42;4.90;99.90
24444;DHT22;13346;50.984;5.822;2022-12-07T09:42:29;4.90;99.90
24444;DHT22;13346;50.984;5.822;2022-12-07T09:44:58;4.90;99.90
24444;DHT22;13346;50.984;5.822;2022-12-07T09:47:26;4.80;99.90
24444;DHT22;13346;50.984;5.822;2022-12-07T09:49:58;4.70;99.90
24444;DHT22;13346;50.984;5.822;2022-12-07T09:52:28;4.70;99.90
24444;DHT22;13346;50.984;5.822;2022-12-07T09:54:55;4.70;99.90
24444;DHT22;13346;50.984;5.822;2022-12-07T09:57:29;4.80;99.90
24444;DHT22;13346;50.984;5.822;2022-12-07T10:00:02;4.70;99.90
24444;DHT22;13346;50.984;5.822;2022-12-07T10:02:36;5.10;99.90
24444;DHT22;13346;50.984;5.822;2022-12-07T10:05:06;5.70;99.90
24444;DHT22;13346;50.984;5.822;2022-12-07T10:07:33;6.30;99.90
24444;DHT22;13346;50.984;5.822;2022-12-07T10:10:03;6.80;99.90
24444;DHT22;13346;50.984;5.822;2022-12-07T10:12:55;7.00;99.90
24444;DHT22;13346;50.984;5.822;2022-12-07T10:15:22;7.20;99.90
24444;DHT22;13346;50.984;5.822;2022-12-07T10:17:51;7.30;99.90
24444;DHT22;13346;50.984;5.822;2022-12-07T10:20:21;7.40;99.90
24444;DHT22;13346;50.984;5.822;2022-12-07T10:23:01;7.60;99.90
24444;DHT22;13346;50.984;5.822;2022-12-07T10:25:32;8.20;99.90
24444;DHT22;13346;50.984;5.822;2022-12-07T10:28:14;8.50;99.90
24444;DHT22;13346;50.984;5.822;2022-12-07T10:30:56;8.60;99.90
24444;DHT22;13346;50.984;5.822;2022-12-07T10:33:33;8.50;99.90
24444;DHT22;13346;50.984;5.822;2022-12-07T10:36:15;8.70;99.90
24444;DHT22;13346;50.984;5.822;2022-12-07T10:38:46;8.50;99.90
24444;DHT22;13346;50.984;5.822;2022-12-07T10:41:14;8.30;99.90
24444;DHT22;13346;50.984;5.822;2022-12-07T10:43:49;9.00;99.90
24444;DHT22;13346;50.984;5.822;2022-12-07T10:46:43;9.20;99.90
24444;DHT22;13346;50.984;5.822;2022-12-07T10:52:16;9.50;99.90
24444;DHT22;13346;50.984;5.822;2022-12-07T10:54:51;9.40;99.90
24444;DHT22;13346;50.984;5.822;2022-12-07T10:57:32;10.20;99.90
24444;DHT22;13346;50.984;5.822;2022-12-07T11:00:11;10.30;99.90
24444;DHT22;13346;50.984;5.822;2022-12-07T11:05:48;9.90;99.90
24444;DHT22;13346;50.984;5.822;2022-12-07T11:08:33;9.90;99.90
24444;DHT22;13346;50.984;5.822;2022-12-07T11:11:08;9.50;99.90
24444;DHT22;13346;50.984;5.822;2022-12-07T11:13:42;9.40;99.90
24444;DHT22;13346;50.984;5.822;2022-12-07T11:16:28;9.90;99.90
24444;DHT22;13346;50.984;5.822;2022-12-07T11:19:12;9.50;99.90
24444;DHT22;13346;50.984;5.822;2022-12-07T11:21:50;9.10;99.90
24444;DHT22;13346;50.984;5.822;2022-12-07T11:24:28;8.80;99.90
24444;DHT22;13346;50.984;5.822;2022-12-07T11:27:06;9.20;99.90
24444;DHT22;13346;50.984;5.822;2022-12-07T11:29:48;9.90;99.90
24444;DHT22;13346;50.984;5.822;2022-12-07T11:32:25;9.30;99.90
24444;DHT22;13346;50.984;5.822;2022-12-07T11:35:03;8.60;99.90
24444;DHT22;13346;50.984;5.822;2022-12-07T11:37:34;7.80;99.90
24444;DHT22;13346;50.984;5.822;2022-12-07T11:40:11;7.60;99.90
24444;DHT22;13346;50.984;5.822;2022-12-07T11:42:46;7.30;99.90
24444;DHT22;13346;50.984;5.822;2022-12-07T11:45:20;7.40;99.90
24444;DHT22;13346;50.984;5.822;2022-12-07T11:47:54;8.00;99.90
24444;DHT22;13346;50.984;5.822;2022-12-07T11:50:27;8.40;99.90
24444;DHT22;13346;50.984;5.822;2022-12-07T11:53:00;8.80;99.90
24444;DHT22;13346;50.984;5.822;2022-12-07T11:55:37;8.70;99.90
24444;DHT22;13346;50.984;5.822;2022-12-07T11:58:19;9.10;99.90
24444;DHT22;13346;50.984;5.822;2022-12-07T12:00:49;9.10;99.90
24444;DHT22;13346;50.984;5.822;2022-12-07T12:03:25;9.20;99.90
24444;DHT22;13346;50.984;5.822;2022-12-07T12:05:56;9.40;99.90
24444;DHT22;13346;50.984;5.822;2022-12-07T12:08:26;8.80;99.90
24444;DHT22;13346;50.984;5.822;2022-12-07T12:10:58;8.50;99.90
24444;DHT22;13346;50.984;5.822;2022-12-07T12:19:29;8.70;99.90
24444;DHT22;13346;50.984;5.822;2022-12-07T12:22:01;8.70;99.90
24444;DHT22;13346;50.984;5.822;2022-12-07T12:24:32;8.70;99.90
24444;DHT22;13346;50.984;5.822;2022-12-07T12:27:05;8.80;99.90
24444;DHT22;13346;50.984;5.822;2022-12-07T12:29:35;8.30;99.90
24444;DHT22;13346;50.984;5.822;2022-12-07T12:32:13;7.80;99.90
24444;DHT22;13346;50.984;5.822;2022-12-07T12:34:59;7.40;99.90
24444;DHT22;13346;50.984;5.822;2022-12-07T12:37:43;7.40;99.90
24444;DHT22;13346;50.984;5.822;2022-12-07T12:40:42;7.40;99.90
24444;DHT22;13346;50.984;5.822;2022-12-07T12:43:48;7.40;99.90
24444;DHT22;13346;50.984;5.822;2022-12-07T12:46:51;7.50;99.90
24444;DHT22;13346;50.984;5.822;2022-12-07T12:49:34;7.60;99.90
24444;DHT22;13346;50.984;5.822;2022-12-07T12:55:16;7.60;99.90
24444;DHT22;13346;50.984;5.822;2022-12-07T12:57:48;7.60;99.90
24444;DHT22;13346;50.984;5.822;2022-12-07T13:00:35;7.40;99.90
24444;DHT22;13346;50.984;5.822;2022-12-07T13:03:02;7.30;99.90
24444;DHT22;13346;50.984;5.822;2022-12-07T13:05:31;7.20;99.90
24444;DHT22;13346;50.984;5.822;2022-12-07T13:08:02;7.20;99.90
24444;DHT22;13346;50.984;5.822;2022-12-07T13:10:42;7.20;99.90
24444;DHT22;13346;50.984;5.822;2022-12-07T13:13:31;7.20;99.90
24444;DHT22;13346;50.984;5.822;2022-12-07T13:23:03;7.00;99.90
24444;DHT22;13346;50.984;5.822;2022-12-07T13:25:38;7.00;99.90
24444;DHT22;13346;50.984;5.822;2022-12-07T13:28:14;7.00;99.90
24444;DHT22;13346;50.984;5.822;2022-12-07T13:30:54;6.90;99.90
24444;DHT22;13346;50.984;5.822;2022-12-07T13:33:28;6.80;99.90
24444;DHT22;13346;50.984;5.822;2022-12-07T13:35:56;6.80;99.90
24444;DHT22;13346;50.984;5.822;2022-12-07T13:38:29;6.80;99.90
24444;DHT22;13346;50.984;5.822;2022-12-07T13:41:13;6.70;99.90
24444;DHT22;13346;50.984;5.822;2022-12-07T13:43:45;6.80;99.90
24444;DHT22;13346;50.984;5.822;2022-12-07T13:46:13;6.90;99.90
24444;DHT22;13346;50.984;5.822;2022-12-07T13:48:45;6.90;99.90
24444;DHT22;13346;50.984;5.822;2022-12-07T13:51:22;6.80;99.90
24444;DHT22;13346;50.984;5.822;2022-12-07T13:53:53;6.80;99.90
24444;DHT22;13346;50.984;5.822;2022-12-07T13:56:22;6.70;99.90
24444;DHT22;13346;50.984;5.822;2022-12-07T13:58:51;6.70;99.90
24444;DHT22;13346;50.984;5.822;2022-12-07T14:01:18;6.70;99.90
24444;DHT22;13346;50.984;5.822;2022-12-07T14:03:46;6.60;99.90
24444;DHT22;13346;50.984;5.822;2022-12-07T14:06:25;6.60;99.90
24444;DHT22;13346;50.984;5.822;2022-12-07T14:09:19;6.60;99.90
24444;DHT22;13346;50.984;5.822;2022-12-07T14:11:49;6.50;99.90
24444;DHT22;13346;50.984;5.822;2022-12-07T14:14:19;6.50;99.90
24444;DHT22;13346;50.984;5.822;2022-12-07T14:17:00;6.50;99.90
24444;DHT22;13346;50.984;5.822;2022-12-07T14:19:56;6.50;99.90
24444;DHT22;13346;50.984;5.822;2022-12-07T14:22:28;6.40;99.90
24444;DHT22;13346;50.984;5.822;2022-12-07T14:25:14;6.40;99.90
24444;DHT22;13346;50.984;5.822;2022-12-07T14:27:49;6.40;99.90
24444;DHT22;13346;50.984;5.822;2022-12-07T14:30:17;6.40;99.90
24444;DHT22;13346;50.984;5.822;2022-12-07T14:32:45;6.60;99.90
24444;DHT22;13346;50.984;5.822;2022-12-07T14:35:16;6.80;99.90
24444;DHT22;13346;50.984;5.822;2022-12-07T14:37:46;6.90;99.90
24444;DHT22;13346;50.984;5.822;2022-12-07T14:40:17;6.90;99.90
24444;DHT22;13346;50.984;5.822;2022-12-07T14:42:46;6.70;99.90
24444;DHT22;13346;50.984;5.822;2022-12-07T14:45:16;6.50;99.90
24444;DHT22;13346;50.984;5.822;2022-12-07T14:47:44;6.30;99.90
24444;DHT22;13346;50.984;5.822;2022-12-07T14:50:13;6.20;99.90
24444;DHT22;13346;50.984;5.822;2022-12-07T14:52:41;6.10;99.90
24444;DHT22;13346;50.984;5.822;2022-12-07T14:55:16;6.00;99.90
24444;DHT22;13346;50.984;5.822;2022-12-07T14:57:45;6.00;99.90
24444;DHT22;13346;50.984;5.822;2022-12-07T15:00:16;5.90;99.90
24444;DHT22;13346;50.984;5.822;2022-12-07T15:02:44;5.90;99.90
24444;DHT22;13346;50.984;5.822;2022-12-07T15:05:12;5.90;99.90
24444;DHT22;13346;50.984;5.822;2022-12-07T15:07:39;5.80;99.90
24444;DHT22;13346;50.984;5.822;2022-12-07T15:10:14;5.70;99.90
24444;DHT22;13346;50.984;5.822;2022-12-07T15:12:45;5.60;99.90
24444;DHT22;13346;50.984;5.822;2022-12-07T15:15:13;5.50;99.90
24444;DHT22;13346;50.984;5.822;2022-12-07T15:17:41;5.40;99.90
24444;DHT22;13346;50.984;5.822;2022-12-07T15:20:11;5.30;99.90
24444;DHT22;13346;50.984;5.822;2022-12-07T15:22:39;5.20;99.90
24444;DHT22;13346;50.984;5.822;2022-12-07T15:25:07;5.20;99.90
24444;DHT22;13346;50.984;5.822;2022-12-07T15:27:34;5.10;99.90
24444;DHT22;13346;50.984;5.822;2022-12-07T15:30:03;5.10;99.90
24444;DHT22;13346;50.984;5.822;2022-12-07T15:32:31;5.00;99.90
24444;DHT22;13346;50.984;5.822;2022-12-07T15:35:07;5.10;99.90
24444;DHT22;13346;50.984;5.822;2022-12-07T15:37:34;5.10;99.90
24444;DHT22;13346;50.984;5.822;2022-12-07T15:40:02;5.10;99.90
24444;DHT22;13346;50.984;5.822;2022-12-07T15:42:29;5.00;99.90
24444;DHT22;13346;50.984;5.822;2022-12-07T15:44:56;5.00;99.90
24444;DHT22;13346;50.984;5.822;2022-12-07T15:47:31;4.80;99.90
24444;DHT22;13346;50.984;5.822;2022-12-07T15:49:58;4.80;99.90
24444;DHT22;13346;50.984;5.822;2022-12-07T15:52:27;4.80;99.90
24444;DHT22;13346;50.984;5.822;2022-12-07T15:54:54;4.70;99.90
24444;DHT22;13346;50.984;5.822;2022-12-07T15:57:21;4.70;99.90
24444;DHT22;13346;50.984;5.822;2022-12-07T15:59:48;4.70;99.90
24444;DHT22;13346;50.984;5.822;2022-12-07T16:02:15;4.60;99.90
24444;DHT22;13346;50.984;5.822;2022-12-07T16:04:43;4.60;99.90
24444;DHT22;13346;50.984;5.822;2022-12-07T16:07:11;4.60;99.90
24444;DHT22;13346;50.984;5.822;2022-12-07T16:09:42;4.80;99.90
24444;DHT22;13346;50.984;5.822;2022-12-07T16:12:10;4.80;99.90
24444;DHT22;13346;50.984;5.822;2022-12-07T16:14:38;4.90;99.90
24444;DHT22;13346;50.984;5.822;2022-12-07T16:17:07;4.90;99.90
24444;DHT22;13346;50.984;5.822;2022-12-07T16:19:35;5.00;99.90
24444;DHT22;13346;50.984;5.822;2022-12-07T16:22:03;5.10;99.90
24444;DHT22;13346;50.984;5.822;2022-12-07T16:24:31;5.00;99.90
24444;DHT22;13346;50.984;5.822;2022-12-07T16:26:59;5.00;99.90
24444;DHT22;13346;50.984;5.822;2022-12-07T16:29:26;4.90;99.90
24444;DHT22;13346;50.984;5.822;2022-12-07T16:31:54;4.90;99.90
24444;DHT22;13346;50.984;5.822;2022-12-07T16:34:21;4.80;99.90
24444;DHT22;13346;50.984;5.822;2022-12-07T16:36:48;4.70;99.90